Time;durP1;ratioP1;P1;durP2;ratioP2;P2;SDS_P1;SDS_P2;PMS_P1;PMS_P2;Temp;Humidity;BMP_temperature;BMP_pressure;BME280_temperature;BME280_humidity;BME280_pressure;Samples;Min_cycle;Max_cycle;Signal;HPM_P1;HPM_P2
2023/12/23 00:01:51;;;;;;;7.50;1.58;;;6.50;99.90;;;;;;5037188;28;20090;-84
2023/12/23 00:04:16;;;;;;;11.80;2.28;;;6.50;99.90;;;;;;5015296;28;20041;-84
2023/12/23 00:06:44;;;;;;;9.18;2.90;;;6.40;99.90;;;;;;5001314;28;20032;-84
2023/12/23 00:09:15;;;;;;;6.65;1.17;;;6.40;99.90;;;;;;5009118;28;20535;-83
2023/12/23 00:11:40;;;;;;;11.50;2.05;;;6.40;99.90;;;;;;5025895;28;20036;-83
2023/12/23 00:14:06;;;;;;;6.35;1.30;;;6.50;99.90;;;;;;5024343;28;20029;-85
2023/12/23 00:16:35;;;;;;;10.25;2.22;;;6.50;99.90;;;;;;5024354;28;20078;-86
2023/12/23 00:19:00;;;;;;;9.82;1.75;;;6.40;99.90;;;;;;5028352;28;20115;-92
2023/12/23 00:21:26;;;;;;;7.75;1.52;;;6.40;99.90;;;;;;5024626;28;20120;-85
2023/12/23 00:23:54;;;;;;;9.25;1.88;;;6.50;99.90;;;;;;5025469;28;20075;-91
2023/12/23 00:26:20;;;;;;;11.68;2.22;;;6.50;99.90;;;;;;5027125;28;20033;-88
2023/12/23 00:28:46;;;;;;;10.23;1.30;;;6.50;99.90;;;;;;5025552;28;20033;-90
2023/12/23 00:31:11;;;;;;;12.68;2.75;;;6.50;99.90;;;;;;5027275;28;20091;-91
2023/12/23 00:33:37;;;;;;;6.55;1.17;;;6.50;99.90;;;;;;5027327;28;20492;-88
2023/12/23 00:36:02;;;;;;;8.35;0.85;;;6.50;99.90;;;;;;5022868;28;20045;-90
2023/12/23 00:38:28;;;;;;;12.77;1.23;;;6.50;99.90;;;;;;5023714;28;20037;-91
2023/12/23 00:40:54;;;;;;;5.88;1.65;;;6.60;99.90;;;;;;5028730;28;20037;-89
2023/12/23 00:43:19;;;;;;;12.77;2.38;;;6.50;99.90;;;;;;5026136;28;20037;-91
2023/12/23 00:45:45;;;;;;;4.50;1.42;;;6.50;99.90;;;;;;5026659;28;20033;-90
2023/12/23 00:48:11;;;;;;;14.85;2.75;;;6.60;99.90;;;;;;5032748;28;20067;-87
2023/12/23 00:50:37;;;;;;;10.02;1.80;;;6.50;99.90;;;;;;5025939;28;20037;-90
2023/12/23 00:53:03;;;;;;;10.60;1.23;;;6.50;99.90;;;;;;5027406;28;20037;-88
2023/12/23 00:55:28;;;;;;;8.27;1.23;;;6.50;99.90;;;;;;5036894;28;20160;-90
2023/12/23 00:57:54;;;;;;;9.75;1.30;;;6.60;99.90;;;;;;5027026;28;20048;-89
2023/12/23 01:00:19;;;;;;;13.95;1.00;;;6.70;99.90;;;;;;5029629;28;20326;-88
2023/12/23 01:02:45;;;;;;;8.63;0.95;;;6.60;99.90;;;;;;5027642;28;20040;-89
2023/12/23 01:05:11;;;;;;;8.30;1.45;;;6.70;99.90;;;;;;5025465;28;20060;-88
2023/12/23 01:07:36;;;;;;;12.75;1.20;;;6.60;99.90;;;;;;5040101;28;20108;-90
2023/12/23 01:10:02;;;;;;;5.28;0.73;;;6.60;99.90;;;;;;5027304;28;20383;-90
2023/12/23 01:12:28;;;;;;;8.68;1.13;;;6.60;99.90;;;;;;5029619;28;20588;-90
2023/12/23 01:14:59;;;;;;;8.20;1.85;;;6.60;99.90;;;;;;5029800;28;20025;-89
2023/12/23 01:17:24;;;;;;;8.93;1.10;;;6.60;99.90;;;;;;5023418;28;21917;-90
2023/12/23 01:19:50;;;;;;;3.30;0.77;;;6.60;99.90;;;;;;5025793;28;20045;-92
2023/12/23 01:22:16;;;;;;;8.85;1.20;;;6.60;99.90;;;;;;5038872;28;20033;-90
2023/12/23 01:24:42;;;;;;;11.27;1.08;;;6.60;99.90;;;;;;5022980;28;20029;-90
2023/12/23 01:27:08;;;;;;;7.00;1.10;;;6.70;99.90;;;;;;5012566;28;20028;-90
2023/12/23 01:29:33;;;;;;;10.48;1.30;;;6.60;99.90;;;;;;5020883;28;20476;-85
2023/12/23 01:31:59;;;;;;;4.82;1.02;;;6.60;99.90;;;;;;4995306;28;20544;-86
2023/12/23 01:34:24;;;;;;;11.73;0.95;;;6.60;99.90;;;;;;5016987;28;20037;-85
2023/12/23 01:36:50;;;;;;;8.07;1.88;;;6.60;99.90;;;;;;5008569;28;20067;-85
2023/12/23 01:39:15;;;;;;;3.70;0.68;;;6.60;99.90;;;;;;5024143;28;20028;-84
2023/12/23 01:41:47;;;;;;;7.25;1.23;;;6.50;99.90;;;;;;4990264;28;20037;-85
2023/12/23 01:44:16;;;;;;;5.55;1.00;;;6.60;99.90;;;;;;5014198;28;20522;-86
2023/12/23 01:46:41;;;;;;;7.78;1.23;;;6.60;99.90;;;;;;5020843;28;20044;-85
2023/12/23 01:49:17;;;;;;;3.72;0.80;;;6.60;99.90;;;;;;5016505;28;20033;-85
2023/12/23 01:51:43;;;;;;;7.35;1.40;;;6.60;99.90;;;;;;4995323;28;20127;-86
2023/12/23 01:54:09;;;;;;;13.13;1.50;;;6.40;99.90;;;;;;5012307;28;20493;-85
2023/12/23 01:56:34;;;;;;;8.32;1.40;;;6.50;99.90;;;;;;5023522;28;20064;-86
2023/12/23 01:59:34;;;;;;;9.00;1.27;;;6.70;99.90;;;;;;4992140;28;20025;-85
2023/12/23 02:02:00;;;;;;;7.53;0.98;;;6.60;99.90;;;;;;5035584;28;20036;-84
2023/12/23 02:04:26;;;;;;;7.13;1.17;;;6.60;99.90;;;;;;5013129;28;20611;-85
2023/12/23 02:06:51;;;;;;;3.50;0.98;;;6.60;99.90;;;;;;5012399;28;20108;-86
2023/12/23 02:09:17;;;;;;;7.50;1.15;;;6.60;99.90;;;;;;5043862;28;21186;-86
2023/12/23 02:12:14;;;;;;;7.25;1.50;;;6.60;99.90;;;;;;5011767;28;20276;-86
2023/12/23 02:14:47;;;;;;;8.88;1.08;;;6.60;99.90;;;;;;5026636;28;20040;-85
2023/12/23 02:17:18;;;;;;;10.00;0.82;;;6.60;99.90;;;;;;5019977;28;20151;-85
2023/12/23 02:19:44;;;;;;;3.83;1.13;;;6.60;99.90;;;;;;4980881;28;20540;-85
2023/12/23 02:22:11;;;;;;;4.18;0.90;;;6.60;99.90;;;;;;4950355;28;20080;-84
2023/12/23 02:24:36;;;;;;;6.13;0.57;;;6.60;99.90;;;;;;4965070;28;20025;-86
2023/12/23 02:27:19;;;;;;;5.22;0.70;;;6.60;99.90;;;;;;5012014;28;20037;-84
2023/12/23 02:29:45;;;;;;;3.95;0.68;;;6.60;99.90;;;;;;4996513;28;20539;-85
2023/12/23 02:32:51;;;;;;;9.23;0.70;;;6.60;99.90;;;;;;4982215;28;20048;-85
2023/12/23 02:35:17;;;;;;;5.75;0.90;;;6.60;99.90;;;;;;5014145;28;20040;-85
2023/12/23 02:37:46;;;;;;;4.10;0.50;;;6.60;99.90;;;;;;5010394;28;20038;-86
2023/12/23 02:40:12;;;;;;;5.63;0.82;;;6.60;99.90;;;;;;5010618;28;20036;-91
2023/12/23 02:42:37;;;;;;;3.63;0.75;;;6.70;99.90;;;;;;5018171;28;20029;-91
2023/12/23 02:45:03;;;;;;;4.22;0.70;;;6.60;99.90;;;;;;4999648;28;20056;-90
2023/12/23 02:47:29;;;;;;;1.48;0.30;;;6.60;99.90;;;;;;5009409;28;20567;-91
2023/12/23 02:49:55;;;;;;;10.43;1.38;;;6.60;99.90;;;;;;5021615;28;20116;-90
2023/12/23 02:52:20;;;;;;;11.98;1.10;;;6.60;99.90;;;;;;5038349;28;20480;-91
2023/12/23 02:54:46;;;;;;;3.38;0.75;;;6.60;99.90;;;;;;5022254;28;20053;-90
2023/12/23 02:57:11;;;;;;;3.80;0.50;;;6.50;99.90;;;;;;5023645;28;20033;-88
2023/12/23 02:59:37;;;;;;;2.47;0.68;;;6.60;99.90;;;;;;5024612;28;20029;-88
2023/12/23 03:02:02;;;;;;;4.40;0.40;;;6.50;99.90;;;;;;5024907;28;20052;-90
2023/12/23 03:04:29;;;;;;;7.55;1.48;;;6.60;99.90;;;;;;5055088;28;20029;-90
2023/12/23 03:06:54;;;;;;;4.35;1.65;;;6.60;99.90;;;;;;5025571;28;20036;-90
2023/12/23 03:09:20;;;;;;;6.07;1.38;;;6.60;99.90;;;;;;5022700;28;20029;-89
2023/12/23 03:11:45;;;;;;;5.95;1.63;;;6.60;99.90;;;;;;5038023;28;20037;-89
2023/12/23 03:14:11;;;;;;;4.18;1.25;;;6.60;99.90;;;;;;5038709;28;20055;-88
2023/12/23 03:16:37;;;;;;;2.33;1.38;;;6.60;99.90;;;;;;5001923;28;20025;-87
2023/12/23 03:19:05;;;;;;;4.65;1.98;;;6.60;99.90;;;;;;5027156;28;20044;-90
2023/12/23 03:21:31;;;;;;;8.93;3.58;;;6.60;99.90;;;;;;5039535;28;20711;-89
2023/12/23 03:23:57;;;;;;;16.52;5.15;;;6.60;99.90;;;;;;5043034;28;20033;-91
2023/12/23 03:26:23;;;;;;;1.85;1.73;;;6.70;99.90;;;;;;5032302;28;20767;-91
2023/12/23 03:28:49;;;;;;;5.72;2.63;;;6.70;99.90;;;;;;5041223;28;20611;-90
2023/12/23 03:31:15;;;;;;;11.88;5.25;;;6.70;99.90;;;;;;5039993;28;20037;-89
2023/12/23 03:33:42;;;;;;;8.35;6.60;;;6.70;99.90;;;;;;5040705;28;20032;-89
2023/12/23 03:36:08;;;;;;;6.45;4.13;;;6.70;99.90;;;;;;5029530;28;20088;-88
2023/12/23 03:38:33;;;;;;;12.00;4.78;;;6.80;99.90;;;;;;5041823;28;20163;-90
2023/12/23 03:40:59;;;;;;;4.18;2.67;;;6.70;99.90;;;;;;5029118;28;20048;-88
2023/12/23 03:43:25;;;;;;;3.20;2.38;;;6.70;99.90;;;;;;5029226;28;20044;-87
2023/12/23 03:45:50;;;;;;;4.20;2.63;;;6.80;99.90;;;;;;5060384;28;20123;-89
2023/12/23 03:48:16;;;;;;;5.85;3.25;;;6.80;99.90;;;;;;5045888;28;20784;-91
2023/12/23 04:28:26;;;;;;;8.77;5.10;;;6.90;99.90;;;;;;4959226;27;3482436;-86
2023/12/23 04:30:56;;;;;;;10.20;5.50;;;7.30;99.90;;;;;;5046310;28;20458;-85
2023/12/23 04:43:41;;;;;;;13.70;5.05;;;7.50;99.90;;;;;;5029800;28;20482;-85
2023/12/23 04:46:06;;;;;;;9.10;4.68;;;7.50;99.90;;;;;;5025295;28;20506;-85
2023/12/23 04:48:32;;;;;;;13.52;5.22;;;7.50;99.90;;;;;;5052911;28;20058;-85
2023/12/23 04:57:43;;;;;;;13.13;7.55;;;7.60;99.90;;;;;;4994627;28;20060;-86
2023/12/23 05:00:12;;;;;;;16.88;8.13;;;7.70;99.90;;;;;;5048094;28;20048;-88
2023/12/23 05:02:38;;;;;;;16.33;8.27;;;7.70;99.90;;;;;;5049799;28;20032;-88
2023/12/23 05:05:04;;;;;;;8.65;4.93;;;7.70;99.90;;;;;;5050430;28;20033;-90
2023/12/23 05:07:32;;;;;;;15.45;9.77;;;7.80;99.90;;;;;;5066845;28;20036;-90
2023/12/23 05:09:58;;;;;;;13.23;8.18;;;7.70;99.90;;;;;;5058634;28;20135;-90
2023/12/23 05:12:30;;;;;;;15.20;7.55;;;7.70;99.90;;;;;;5056838;28;20059;-90
2023/12/23 05:14:55;;;;;;;12.27;7.95;;;7.70;99.90;;;;;;5045497;28;20055;-90
2023/12/23 05:17:23;;;;;;;19.25;11.25;;;7.70;99.90;;;;;;5058651;28;20047;-90
2023/12/23 05:19:49;;;;;;;14.07;9.20;;;7.70;99.90;;;;;;5052763;28;20089;-91
2023/12/23 05:22:15;;;;;;;18.55;12.45;;;7.70;99.90;;;;;;5047385;28;20099;-90
2023/12/23 05:24:43;;;;;;;20.88;8.35;;;7.80;99.90;;;;;;5039343;28;20033;-90
2023/12/23 05:27:09;;;;;;;13.40;7.68;;;7.80;99.90;;;;;;5063083;28;20064;-88
2023/12/23 05:29:35;;;;;;;11.85;6.50;;;7.90;99.90;;;;;;5040199;28;20040;-90
2023/12/23 05:32:03;;;;;;;17.65;8.18;;;7.80;99.90;;;;;;5063088;28;20028;-90
2023/12/23 05:34:28;;;;;;;16.40;8.73;;;7.80;99.90;;;;;;5034430;28;20087;-90
2023/12/23 05:36:54;;;;;;;21.75;10.70;;;7.80;99.90;;;;;;5034294;28;20509;-89
2023/12/23 05:39:20;;;;;;;14.73;8.00;;;7.80;99.90;;;;;;5025890;28;20092;-90
2023/12/23 05:41:45;;;;;;;19.08;8.98;;;7.80;99.90;;;;;;5032022;28;20067;-90
2023/12/23 05:44:11;;;;;;;17.77;10.60;;;7.70;99.90;;;;;;5032354;28;20041;-88
2023/12/23 05:46:37;;;;;;;17.77;10.25;;;7.70;99.90;;;;;;5036916;28;20056;-89
2023/12/23 05:49:03;;;;;;;18.17;11.05;;;7.80;99.90;;;;;;5006042;28;20620;-89
2023/12/23 05:51:28;;;;;;;20.05;10.70;;;7.70;99.90;;;;;;5021547;28;20036;-90
2023/12/23 05:53:54;;;;;;;12.73;7.68;;;7.80;99.90;;;;;;5036856;28;20050;-90
2023/12/23 05:56:20;;;;;;;21.40;11.15;;;7.80;99.90;;;;;;5037209;28;20090;-90
2023/12/23 05:58:45;;;;;;;25.50;13.45;;;7.80;99.90;;;;;;5033807;28;20057;-88
2023/12/23 06:01:14;;;;;;;15.50;8.65;;;7.80;99.90;;;;;;5037266;28;20447;-89
2023/12/23 06:03:46;;;;;;;18.95;8.90;;;7.90;99.90;;;;;;5035862;28;20024;-88
2023/12/23 06:06:11;;;;;;;14.98;8.65;;;7.80;99.90;;;;;;5030260;28;20036;-88
2023/12/23 06:08:37;;;;;;;16.83;7.47;;;7.80;99.90;;;;;;5037120;28;20055;-87
2023/12/23 06:11:21;;;;;;;14.75;7.15;;;7.70;99.90;;;;;;5061184;28;20126;-89
2023/12/23 06:13:47;;;;;;;16.23;6.13;;;7.80;99.90;;;;;;5052822;28;20079;-87
2023/12/23 06:16:13;;;;;;;14.02;7.00;;;7.80;99.90;;;;;;5030817;28;20041;-90
2023/12/23 06:18:39;;;;;;;8.63;4.50;;;7.80;99.90;;;;;;5035086;28;20063;-90
2023/12/23 06:21:04;;;;;;;9.90;5.53;;;7.80;99.90;;;;;;5013219;28;20028;-90
2023/12/23 06:23:30;;;;;;;17.35;8.40;;;7.80;99.90;;;;;;5045361;28;21155;-89
2023/12/23 06:25:57;;;;;;;19.77;8.43;;;7.80;99.90;;;;;;5024981;28;20066;-90
2023/12/23 06:28:23;;;;;;;12.57;7.40;;;7.80;99.90;;;;;;5013402;28;20059;-90
2023/12/23 06:30:49;;;;;;;13.07;7.32;;;7.80;99.90;;;;;;4997859;28;20041;-90
2023/12/23 06:33:16;;;;;;;18.92;8.70;;;7.80;99.90;;;;;;5048526;28;20033;-89
2023/12/23 06:35:44;;;;;;;18.92;8.95;;;7.80;99.90;;;;;;5039299;28;20586;-88
2023/12/23 06:38:15;;;;;;;13.65;5.55;;;7.90;99.90;;;;;;5053892;28;20093;-88
2023/12/23 06:40:41;;;;;;;20.33;7.00;;;7.80;99.90;;;;;;5032903;28;20055;-86
2023/12/23 06:43:07;;;;;;;21.75;9.70;;;7.80;99.90;;;;;;5022758;28;20059;-90
2023/12/23 06:45:32;;;;;;;13.30;6.75;;;7.80;99.90;;;;;;5013336;28;20418;-88
2023/12/23 06:47:59;;;;;;;13.43;7.22;;;7.80;99.90;;;;;;5025555;28;20040;-90
2023/12/23 06:50:45;;;;;;;16.38;8.05;;;7.80;99.90;;;;;;5040926;28;20042;-89
2023/12/23 06:53:11;;;;;;;11.32;5.13;;;7.80;99.90;;;;;;5038542;28;20405;-86
2023/12/23 06:55:37;;;;;;;13.18;6.68;;;7.80;99.90;;;;;;5021328;28;20033;-89
2023/12/23 06:58:08;;;;;;;16.15;6.32;;;7.80;99.90;;;;;;5037833;28;20166;-89
2023/12/23 07:00:43;;;;;;;13.48;6.35;;;7.80;99.90;;;;;;5032590;28;20540;-88
2023/12/23 07:03:09;;;;;;;8.93;5.40;;;7.90;99.90;;;;;;5024256;28;20463;-89
2023/12/23 07:05:35;;;;;;;14.05;6.55;;;7.80;99.90;;;;;;5043322;28;20086;-88
2023/12/23 07:08:00;;;;;;;16.42;6.00;;;7.80;99.90;;;;;;5009343;28;20481;-87
2023/12/23 07:10:26;;;;;;;17.77;5.93;;;7.80;99.90;;;;;;5033200;28;20047;-88
2023/12/23 07:12:51;;;;;;;14.63;5.95;;;7.90;99.90;;;;;;5034155;28;20028;-89
2023/12/23 07:15:32;;;;;;;18.17;8.88;;;7.90;99.90;;;;;;5030145;28;20028;-88
2023/12/23 07:17:58;;;;;;;15.82;8.00;;;7.90;99.90;;;;;;5017361;28;20075;-89
2023/12/23 07:20:27;;;;;;;13.80;6.22;;;7.90;99.90;;;;;;5031870;28;20040;-88
2023/12/23 07:22:59;;;;;;;10.70;7.22;;;8.00;99.90;;;;;;5048856;28;20118;-90
2023/12/23 07:25:25;;;;;;;13.13;5.28;;;7.90;99.90;;;;;;5022916;28;20040;-89
2023/12/23 07:27:53;;;;;;;12.13;4.45;;;7.90;99.90;;;;;;5030799;28;20046;-88
2023/12/23 07:30:25;;;;;;;9.77;3.63;;;7.90;99.90;;;;;;5049413;28;20040;-89
2023/12/23 07:32:53;;;;;;;14.48;5.43;;;7.90;99.90;;;;;;5026864;28;20036;-90
2023/12/23 07:35:25;;;;;;;10.23;4.00;;;7.90;99.90;;;;;;5015681;28;20036;-93
2023/12/23 07:37:56;;;;;;;13.35;6.03;;;7.90;99.90;;;;;;5028508;28;20028;-90
2023/12/23 07:40:22;;;;;;;9.27;4.82;;;7.90;99.90;;;;;;5014798;28;20036;-90
2023/12/23 07:42:50;;;;;;;9.70;4.85;;;7.80;99.90;;;;;;5044098;28;20032;-93
2023/12/23 07:45:41;;;;;;;8.80;5.07;;;7.90;99.90;;;;;;5049099;28;20402;-91
2023/12/23 07:48:07;;;;;;;21.17;5.60;;;7.90;99.90;;;;;;5027681;28;20037;-93
2023/12/23 07:50:33;;;;;;;12.00;4.35;;;7.90;99.90;;;;;;5040171;28;20116;-91
2023/12/23 07:53:05;;;;;;;6.03;3.95;;;7.90;99.90;;;;;;5036170;28;20136;-93
2023/12/23 07:55:40;;;;;;;;;;;;;;;;;;;;;
2023/12/23 07:58:07;;;;;;;12.07;5.88;;;7.90;99.90;;;;;;5057834;28;20028;-91
2023/12/23 08:00:33;;;;;;;10.25;4.15;;;7.90;99.90;;;;;;5010625;28;20092;-89
2023/12/23 08:02:58;;;;;;;10.75;4.35;;;7.90;99.90;;;;;;5031061;28;20120;-91
2023/12/23 08:05:24;;;;;;;11.55;4.18;;;8.00;99.90;;;;;;5038004;28;20040;-89
2023/12/23 08:07:50;;;;;;;13.50;3.72;;;8.00;99.90;;;;;;5042655;28;20036;-89
2023/12/23 08:10:17;;;;;;;23.52;5.03;;;8.00;99.90;;;;;;5061897;28;20027;-90
2023/12/23 08:12:42;;;;;;;9.43;4.68;;;8.00;99.90;;;;;;5044620;28;20496;-90
2023/12/23 08:15:08;;;;;;;7.40;2.95;;;8.00;99.90;;;;;;5033449;28;20044;-91
2023/12/23 08:17:34;;;;;;;9.68;4.28;;;8.00;99.90;;;;;;5048164;28;20032;-89
2023/12/23 08:19:59;;;;;;;9.82;3.85;;;8.00;99.90;;;;;;5042109;28;20047;-89
2023/12/23 08:22:28;;;;;;;16.30;4.97;;;8.00;99.90;;;;;;5035975;28;20462;-92
2023/12/23 08:25:12;;;;;;;14.77;5.43;;;8.00;99.90;;;;;;5024796;28;20514;-91
2023/12/23 08:27:38;;;;;;;13.38;5.13;;;8.10;99.90;;;;;;5009322;28;20037;-91
2023/12/23 08:30:08;;;;;;;12.50;3.80;;;8.00;99.90;;;;;;5031065;28;20049;-91
2023/12/23 08:32:37;;;;;;;10.32;4.75;;;8.00;99.90;;;;;;5037753;28;20486;-90
2023/12/23 08:35:03;;;;;;;10.95;4.50;;;8.00;99.90;;;;;;5047749;28;20037;-91
2023/12/23 08:37:29;;;;;;;5.18;3.00;;;8.10;99.90;;;;;;5062906;28;20041;-91
2023/12/23 08:39:54;;;;;;;14.35;4.53;;;8.00;99.90;;;;;;5059166;28;20055;-91
2023/12/23 08:42:20;;;;;;;8.02;2.92;;;8.10;99.90;;;;;;5027447;28;20040;-88
2023/12/23 08:44:47;;;;;;;12.82;3.28;;;8.10;99.90;;;;;;5030632;28;20053;-90
2023/12/23 08:47:13;;;;;;;9.75;2.95;;;8.10;99.90;;;;;;5045337;28;20402;-89
2023/12/23 08:49:39;;;;;;;9.07;3.60;;;7.90;99.90;;;;;;5027399;28;20037;-91
2023/12/23 08:52:05;;;;;;;9.93;3.38;;;8.10;99.90;;;;;;5033846;28;20033;-88
2023/12/23 08:54:31;;;;;;;13.93;4.53;;;8.10;99.90;;;;;;5040650;28;20031;-90
2023/12/23 08:56:56;;;;;;;13.00;3.00;;;8.10;99.90;;;;;;5048517;28;20037;-90
2023/12/23 08:59:22;;;;;;;8.23;2.65;;;8.20;99.90;;;;;;5027194;28;20048;-94
2023/12/23 09:01:50;;;;;;;9.48;2.35;;;8.10;99.90;;;;;;5041215;28;20110;-92
2023/12/23 09:04:18;;;;;;;4.50;2.00;;;8.10;99.90;;;;;;5038425;28;20032;-92
2023/12/23 09:07:06;;;;;;;9.85;1.88;;;8.10;99.90;;;;;;5042017;28;20038;-87
2023/12/23 09:09:32;;;;;;;5.60;2.25;;;8.20;99.90;;;;;;5034963;28;20040;-92
2023/12/23 09:12:02;;;;;;;8.70;3.05;;;8.20;99.90;;;;;;5044752;28;20044;-87
2023/12/23 09:14:29;;;;;;;20.17;3.75;;;8.20;99.90;;;;;;5041366;28;20116;-93
2023/12/23 09:16:55;;;;;;;11.80;2.90;;;8.20;99.90;;;;;;5047132;28;20032;-92
2023/12/23 09:19:20;;;;;;;11.32;2.70;;;8.20;99.90;;;;;;5041818;28;20032;-92
2023/12/23 09:21:46;;;;;;;12.75;2.47;;;8.10;99.90;;;;;;5039413;28;20036;-91
2023/12/23 09:24:12;;;;;;;9.55;3.30;;;8.20;99.90;;;;;;5057344;28;20291;-91
2023/12/23 09:26:37;;;;;;;20.17;2.05;;;8.20;99.90;;;;;;5053278;28;20435;-86
2023/12/23 09:29:03;;;;;;;5.57;1.40;;;8.30;99.90;;;;;;5060691;28;20071;-90
2023/12/23 09:31:28;;;;;;;8.52;1.73;;;8.20;99.90;;;;;;5037066;28;20409;-93
2023/12/23 09:33:54;;;;;;;14.88;2.08;;;8.20;99.90;;;;;;5029712;28;20094;-92
2023/12/23 09:36:23;;;;;;;5.97;1.63;;;8.20;99.90;;;;;;5016890;28;20032;-90
2023/12/23 09:38:50;;;;;;;13.85;2.35;;;8.20;99.90;;;;;;5024423;28;20040;-90
2023/12/23 09:41:16;;;;;;;6.45;1.60;;;8.30;99.90;;;;;;5022495;28;20394;-92
2023/12/23 09:43:44;;;;;;;9.32;1.98;;;8.30;99.90;;;;;;5025848;28;20033;-86
2023/12/23 09:46:10;;;;;;;6.72;1.58;;;8.20;99.90;;;;;;5031310;28;20128;-89
2023/12/23 09:48:35;;;;;;;6.57;1.08;;;8.30;99.90;;;;;;5030538;28;20120;-90
2023/12/23 09:51:01;;;;;;;21.50;2.67;;;8.30;99.90;;;;;;5047257;28;20040;-89
2023/12/23 09:53:30;;;;;;;8.55;1.75;;;8.30;99.90;;;;;;5034418;28;20055;-89
2023/12/23 09:55:55;;;;;;;9.93;1.77;;;8.30;99.90;;;;;;5046525;28;20036;-86
2023/12/23 09:58:21;;;;;;;4.72;1.45;;;8.30;99.90;;;;;;5047172;28;20036;-90
2023/12/23 10:00:46;;;;;;;9.10;2.13;;;8.30;99.90;;;;;;5045851;28;20028;-89
2023/12/23 10:03:12;;;;;;;4.38;1.20;;;8.30;99.90;;;;;;5049629;28;20028;-87
2023/12/23 10:05:43;;;;;;;13.57;2.58;;;8.40;99.90;;;;;;5041998;28;20128;-92
2023/12/23 10:08:09;;;;;;;8.40;1.40;;;8.30;99.90;;;;;;5048169;28;20035;-88
2023/12/23 10:10:34;;;;;;;5.55;1.25;;;8.40;99.90;;;;;;5029144;28;20041;-89
2023/12/23 10:13:00;;;;;;;8.40;1.63;;;8.40;99.90;;;;;;5047199;28;20113;-90
2023/12/23 10:15:27;;;;;;;9.32;1.23;;;8.30;99.90;;;;;;5044860;28;20050;-84
2023/12/23 10:17:53;;;;;;;5.88;1.10;;;8.30;99.90;;;;;;5031201;28;20060;-86
2023/12/23 10:20:21;;;;;;;9.20;2.10;;;8.30;99.90;;;;;;5043572;28;20872;-87
2023/12/23 10:22:47;;;;;;;8.55;1.65;;;8.30;99.90;;;;;;5033460;28;20052;-89
2023/12/23 10:25:13;;;;;;;4.82;1.35;;;8.30;99.90;;;;;;5033653;28;20032;-89
2023/12/23 10:27:41;;;;;;;10.63;1.65;;;8.30;99.90;;;;;;5047059;28;20837;-89
2023/12/23 10:30:11;;;;;;;10.88;1.73;;;8.40;99.90;;;;;;5047464;28;20092;-88
2023/12/23 10:32:37;;;;;;;7.32;1.20;;;8.30;99.90;;;;;;5032010;28;20509;-88
2023/12/23 10:35:05;;;;;;;3.75;1.33;;;8.40;99.90;;;;;;5045331;28;20021;-88
2023/12/23 10:37:30;;;;;;;5.53;1.48;;;8.40;99.90;;;;;;5043814;28;20135;-87
2023/12/23 10:40:09;;;;;;;2.55;1.75;;;8.40;99.90;;;;;;5031407;28;20092;-91
2023/12/23 10:42:38;;;;;;;4.68;1.70;;;8.40;99.90;;;;;;5032089;28;20041;-89
2023/12/23 10:45:04;;;;;;;7.03;1.75;;;8.40;99.90;;;;;;5028861;28;20036;-88
2023/12/23 10:47:30;;;;;;;6.35;1.58;;;8.40;99.90;;;;;;5031088;28;20044;-90
2023/12/23 10:49:56;;;;;;;3.08;0.90;;;8.40;99.90;;;;;;5047244;28;20029;-83
2023/12/23 10:52:22;;;;;;;4.03;1.17;;;8.40;99.90;;;;;;5040810;28;20120;-82
2023/12/23 10:54:48;;;;;;;3.25;1.23;;;8.40;99.90;;;;;;5028788;28;20124;-82
2023/12/23 10:57:14;;;;;;;7.55;1.55;;;8.40;99.90;;;;;;5033895;28;20048;-83
2023/12/23 10:59:40;;;;;;;6.55;2.47;;;8.40;99.90;;;;;;5025719;28;20034;-82
2023/12/23 11:02:12;;;;;;;6.07;1.45;;;8.40;99.90;;;;;;5027068;28;20809;-83
2023/12/23 11:04:38;;;;;;;3.38;1.35;;;8.40;99.90;;;;;;5039543;28;20036;-82
2023/12/23 11:07:03;;;;;;;5.85;2.13;;;8.40;99.90;;;;;;5041275;28;20059;-83
2023/12/23 11:09:32;;;;;;;5.53;1.42;;;8.50;99.90;;;;;;5014817;28;20158;-84
2023/12/23 11:11:59;;;;;;;6.75;1.92;;;8.50;99.90;;;;;;5031562;28;20031;-83
2023/12/23 11:14:24;;;;;;;11.73;3.17;;;8.40;99.90;;;;;;5047184;28;20028;-83
2023/12/23 11:16:50;;;;;;;10.57;2.45;;;8.50;99.90;;;;;;5030839;28;20032;-83
2023/12/23 11:19:15;;;;;;;3.60;1.70;;;8.50;99.90;;;;;;5032482;28;20401;-83
2023/12/23 11:21:41;;;;;;;13.82;1.90;;;8.40;99.90;;;;;;5026660;28;20383;-83
2023/12/23 11:24:36;;;;;;;9.00;2.03;;;8.30;99.90;;;;;;5027858;28;20033;-83
2023/12/23 11:27:05;;;;;;;4.35;1.73;;;8.40;99.90;;;;;;5047112;28;20028;-84
2023/12/23 11:29:31;;;;;;;8.55;1.80;;;8.40;99.90;;;;;;5028470;28;20093;-83
2023/12/23 11:32:13;;;;;;;13.20;2.30;;;8.50;99.90;;;;;;5031921;28;20028;-83
2023/12/23 11:34:40;;;;;;;5.32;1.58;;;8.50;99.90;;;;;;5032937;28;20089;-83
2023/12/23 11:37:07;;;;;;;9.20;2.65;;;8.30;99.90;;;;;;5029605;28;20154;-83
2023/12/23 11:39:32;;;;;;;3.00;1.35;;;8.50;99.90;;;;;;5031968;28;20571;-83
2023/12/23 11:41:58;;;;;;;7.55;2.83;;;8.50;99.90;;;;;;5033576;28;20063;-83
2023/12/23 11:44:23;;;;;;;7.35;3.45;;;8.40;99.90;;;;;;5046070;28;20032;-83
2023/12/23 11:46:49;;;;;;;6.80;2.13;;;8.50;99.90;;;;;;5044141;28;20032;-83
2023/12/23 11:49:15;;;;;;;6.35;2.88;;;8.50;99.90;;;;;;5027907;28;20702;-83
2023/12/23 11:51:41;;;;;;;14.60;4.00;;;8.60;99.90;;;;;;5044229;28;20040;-83
2023/12/23 11:54:07;;;;;;;6.00;3.28;;;8.50;99.90;;;;;;5043491;28;20037;-83
2023/12/23 11:56:33;;;;;;;12.13;3.15;;;8.50;99.90;;;;;;5027775;28;20060;-83
2023/12/23 11:59:01;;;;;;;10.70;3.70;;;8.50;99.90;;;;;;5032467;28;20447;-83
2023/12/23 12:01:27;;;;;;;3.42;2.03;;;8.50;99.90;;;;;;5029849;28;20064;-85
2023/12/23 12:03:53;;;;;;;11.93;3.25;;;8.60;99.90;;;;;;5030171;28;20028;-84
2023/12/23 12:06:19;;;;;;;6.25;2.58;;;8.50;99.90;;;;;;5029839;28;20089;-84
2023/12/23 12:09:13;;;;;;;14.73;4.13;;;8.50;99.90;;;;;;5032206;28;20039;-84
2023/12/23 12:11:39;;;;;;;9.13;2.90;;;8.50;99.90;;;;;;5042881;28;20091;-85
2023/12/23 12:14:06;;;;;;;3.75;2.13;;;8.50;99.90;;;;;;5030314;28;20053;-84
2023/12/23 12:16:33;;;;;;;8.75;2.63;;;8.50;99.90;;;;;;5042927;28;20044;-83
2023/12/23 12:18:58;;;;;;;7.68;2.15;;;8.60;99.90;;;;;;5032981;28;20028;-84
2023/12/23 12:21:24;;;;;;;8.43;2.17;;;8.50;99.90;;;;;;5032454;28;20046;-84
2023/12/23 12:23:50;;;;;;;8.65;1.42;;;8.50;99.90;;;;;;5028926;28;20043;-84
2023/12/23 12:26:15;;;;;;;9.32;2.10;;;8.50;99.90;;;;;;5058780;28;20371;-84
2023/12/23 12:28:41;;;;;;;4.55;1.60;;;8.50;99.90;;;;;;5024028;28;20600;-84
2023/12/23 12:31:10;;;;;;;7.68;1.90;;;8.50;99.90;;;;;;5028744;28;20094;-84
2023/12/23 12:33:37;;;;;;;10.38;1.73;;;8.50;99.90;;;;;;5031258;28;20036;-84
2023/12/23 12:36:03;;;;;;;23.65;1.98;;;8.50;99.90;;;;;;5045165;28;20120;-84
2023/12/23 12:38:29;;;;;;;10.07;1.70;;;8.50;99.90;;;;;;5032536;28;20028;-84
2023/12/23 12:40:55;;;;;;;8.85;1.88;;;8.50;99.90;;;;;;5032584;28;20406;-84
2023/12/23 12:43:22;;;;;;;13.13;3.40;;;8.50;99.90;;;;;;5031661;28;20032;-85
2023/12/23 12:45:48;;;;;;;6.97;1.70;;;8.50;99.90;;;;;;5046624;28;20093;-83
2023/12/23 12:48:13;;;;;;;9.45;1.50;;;8.60;99.90;;;;;;5043547;28;20032;-84
2023/12/23 12:50:42;;;;;;;7.03;1.48;;;8.60;99.90;;;;;;5043661;28;20032;-84
2023/12/23 12:53:07;;;;;;;4.97;1.48;;;8.60;99.90;;;;;;5033988;28;20061;-84
2023/12/23 12:55:33;;;;;;;12.23;2.00;;;8.60;99.90;;;;;;5027804;28;20041;-84
2023/12/23 12:57:59;;;;;;;4.20;1.65;;;8.60;99.90;;;;;;5019641;28;20020;-84
2023/12/23 13:00:26;;;;;;;15.23;2.42;;;8.60;99.90;;;;;;5027016;28;20035;-85
2023/12/23 13:02:52;;;;;;;5.70;1.13;;;8.60;99.90;;;;;;5024806;28;20029;-84
2023/12/23 13:05:18;;;;;;;7.18;1.83;;;8.50;99.90;;;;;;5028920;28;20062;-84
2023/12/23 13:07:43;;;;;;;4.68;1.15;;;8.60;99.90;;;;;;5049655;28;20055;-84
2023/12/23 13:10:12;;;;;;;8.52;1.75;;;8.50;99.90;;;;;;5032626;28;20078;-87
2023/12/23 13:12:45;;;;;;;23.25;3.13;;;8.60;99.90;;;;;;5038128;28;20042;-86
2023/12/23 13:15:11;;;;;;;9.88;1.30;;;8.60;99.90;;;;;;5037689;28;20025;-91
2023/12/23 13:17:36;;;;;;;10.18;1.73;;;8.50;99.90;;;;;;5035089;28;20038;-91
2023/12/23 13:20:03;;;;;;;3.25;0.80;;;8.60;99.90;;;;;;5033127;28;20063;-87
2023/12/23 13:22:29;;;;;;;9.40;1.85;;;8.60;99.90;;;;;;5030346;28;20524;-86
2023/12/23 13:24:57;;;;;;;10.27;1.30;;;8.70;99.90;;;;;;5031467;28;20032;-81
2023/12/23 13:27:23;;;;;;;5.15;0.98;;;8.60;99.90;;;;;;5059418;28;20040;-85
2023/12/23 13:29:48;;;;;;;10.27;2.13;;;8.60;99.90;;;;;;5033569;28;20052;-85
2023/12/23 13:32:14;;;;;;;6.82;1.30;;;8.60;99.90;;;;;;5047037;28;20085;-89
2023/12/23 13:34:40;;;;;;;8.95;1.10;;;8.60;99.90;;;;;;5044633;28;20036;-86
2023/12/23 13:37:08;;;;;;;5.18;1.38;;;8.70;99.90;;;;;;5030975;28;20043;-86
2023/12/23 13:39:33;;;;;;;4.45;1.20;;;8.60;99.90;;;;;;5039616;28;20105;-88
2023/12/23 13:42:01;;;;;;;4.50;1.10;;;8.70;99.90;;;;;;5033411;28;20068;-89
2023/12/23 13:44:27;;;;;;;3.50;1.07;;;8.70;99.90;;;;;;4704107;28;9999963;-90
2023/12/23 13:46:53;;;;;;;3.35;0.82;;;8.70;99.90;;;;;;5030396;28;20105;-89
2023/12/23 13:49:21;;;;;;;3.47;0.90;;;8.70;99.90;;;;;;5044775;28;20066;-86